< < Back
Terminal Aerodrome Forecast


Current Version              Previous Versions:   1  2  3  4  5  6  7  8  9  

Terminal Aerodrome Forecast

081
FTUS44 KOHX 260500 CCA
TAFCSV
TAF COR
KCSV 260557Z 2606/2706 33009KT P6SM -SHRA FEW015 SCT025 OVC035
      TEMPO 2606/2608 5SM -RA OVC025
     FM260800 25007KT P6SM OVC025
      TEMPO 2610/2613 5SM BR OVC015
     FM262000 33008KT P6SM OVC035=

Latest METAR

240
SAUS70 KWBC 260600 RRE
MTRCSV
METAR KCSV 260553Z AUTO 28005KT 10SM BKN047 BKN100 OVC110 16/13 A2964
RMK AO2 SLP020 60021 T01560128 10228 20150 402500111
51009


USA.gov is the U.S. government's official web portal to all federal, state and local government web resources and services.